PWSweather.com
Personal Weather Stations
Station Observations
ANTHEMNP
Anthem, AZ 85086

Anthem, AZ 85086

Lat: 33.876464, Lon: -112.13861199999997

Elevation: 1930

Station Type: AcuRite 1036

Latest ConditionsUpdated 8:00:01 AM MST Monday, Oct 23, 2017
Currently Today's Max Today's Min Today's Average
Temperature 76.6°F24.8°C 77.5°F25.3°C 71.1°F21.7°C 74.3°F23.5°C
Dew Point 27.0°F-2.8°C 28.2°F-2.1°C 20.5°F-6.4°C 25.8°F-3.4°C
Winds 11.5 mph N18.5 kmh N 16.1 mph NE25.9 kmh NE - 8.6 mph 13.8 kmh
Wind Gusts 17.3 mph27.8 kmh 20.7 mph33.3 kmh - -
Humidity 16% 18% 14% 16%
Pressure 30.14 in1020.7 mb 30.14 in1020.7 mb 30.09 in1019.0 mb -
Hour Temp Dew Point Humidity Winds Wind Gusts Pressure Precip Precip Rate Daily Precip Total
08:00 AM 76.6°F24.8°C 27.0°F-2.8°C 16% 11.5 mph N18.5 kmh N 17.3 mph27.8 kmh 30.14 in1020.7 mb - 0.00 in0.0 mm 0.00 in0.0 mm
07:55 AM 76.3°F24.6°C 26.8°F-2.9°C 16% 13.8 mph N22.2 kmh N 13.8 mph22.2 kmh 30.14 in1020.7 mb - 0.00 in0.0 mm 0.00 in0.0 mm
07:50 AM 76.1°F24.5°C 26.6°F-3.0°C 16% 13.8 mph N22.2 kmh N 13.8 mph22.2 kmh 30.14 in1020.7 mb - 0.00 in0.0 mm 0.00 in0.0 mm
07:45 AM 75.7°F24.3°C 26.3°F-3.2°C 16% 12.7 mph NE20.4 kmh NE 13.8 mph22.2 kmh 30.14 in1020.7 mb - 0.00 in0.0 mm 0.00 in0.0 mm
07:40 AM 75.7°F24.3°C 26.3°F-3.2°C 16% 15.0 mph WNW24.1 kmh WNW 15.0 mph24.1 kmh 30.13 in1020.3 mb - 0.00 in0.0 mm 0.00 in0.0 mm
07:35 AM 75.6°F24.2°C 26.2°F-3.2°C 16% 15.0 mph NNW24.1 kmh NNW 15.0 mph24.1 kmh 30.13 in1020.3 mb - 0.00 in0.0 mm 0.00 in0.0 mm
07:30 AM 75.6°F24.2°C 26.2°F-3.2°C 16% 15.0 mph NNE24.1 kmh NNE 18.4 mph29.6 kmh 30.13 in1020.3 mb - 0.00 in0.0 mm 0.00 in0.0 mm
07:25 AM 75.6°F24.2°C 26.2°F-3.2°C 16% 16.1 mph NNE25.9 kmh NNE 20.7 mph33.3 kmh 30.13 in1020.3 mb - 0.00 in0.0 mm 0.00 in0.0 mm
07:20 AM 75.7°F24.3°C 26.3°F-3.2°C 16% 11.5 mph NE18.5 kmh NE 13.8 mph22.2 kmh 30.13 in1020.3 mb - 0.00 in0.0 mm 0.00 in0.0 mm
07:15 AM 76.1°F24.5°C 26.6°F-3.0°C 16% 11.5 mph NE18.5 kmh NE 13.8 mph22.2 kmh 30.12 in1020.0 mb - 0.00 in0.0 mm 0.00 in0.0 mm
07:10 AM 76.1°F24.5°C 26.6°F-3.0°C 16% 13.8 mph NW22.2 kmh NW 19.6 mph31.5 kmh 30.12 in1020.0 mb - 0.00 in0.0 mm 0.00 in0.0 mm
07:05 AM 76.1°F24.5°C 26.6°F-3.0°C 16% 10.4 mph NW16.7 kmh NW 10.4 mph16.7 kmh 30.12 in1020.0 mb - 0.00 in0.0 mm 0.00 in0.0 mm
07:00 AM 76.1°F24.5°C 26.6°F-3.0°C 16% 12.7 mph N20.4 kmh N 15.0 mph24.1 kmh 30.12 in1020.0 mb - 0.00 in0.0 mm 0.00 in0.0 mm
06:55 AM 76.3°F24.6°C 26.8°F-2.9°C 16% 11.5 mph N18.5 kmh N 12.7 mph20.4 kmh 30.12 in1020.0 mb - 0.00 in0.0 mm 0.00 in0.0 mm
06:50 AM 76.5°F24.7°C 26.9°F-2.8°C 16% 12.7 mph NNE20.4 kmh NNE 17.3 mph27.8 kmh 30.12 in1020.0 mb - 0.00 in0.0 mm 0.00 in0.0 mm
06:45 AM 76.3°F24.6°C 26.8°F-2.9°C 16% 11.5 mph N18.5 kmh N 17.3 mph27.8 kmh 30.12 in1020.0 mb - 0.00 in0.0 mm 0.00 in0.0 mm
06:40 AM 76.3°F24.6°C 26.8°F-2.9°C 16% 10.4 mph N16.7 kmh N 16.1 mph25.9 kmh 30.12 in1020.0 mb - 0.00 in0.0 mm 0.00 in0.0 mm
06:35 AM 76.1°F24.5°C 26.6°F-3.0°C 16% 12.7 mph NE20.4 kmh NE 13.8 mph22.2 kmh 30.12 in1020.0 mb - 0.00 in0.0 mm 0.00 in0.0 mm
06:30 AM 76.1°F24.5°C 26.6°F-3.0°C 16% 11.5 mph N18.5 kmh N 15.0 mph24.1 kmh 30.11 in1019.6 mb - 0.00 in0.0 mm 0.00 in0.0 mm
06:25 AM 76.1°F24.5°C 26.6°F-3.0°C 16% 16.1 mph NE25.9 kmh NE 16.1 mph25.9 kmh 30.11 in1019.6 mb - 0.00 in0.0 mm 0.00 in0.0 mm
06:20 AM 76.1°F24.5°C 26.6°F-3.0°C 16% 11.5 mph NE18.5 kmh NE 16.1 mph25.9 kmh 30.11 in1019.6 mb - 0.00 in0.0 mm 0.00 in0.0 mm
06:15 AM 76.6°F24.8°C 27.0°F-2.8°C 16% 13.8 mph NNE22.2 kmh NNE 15.0 mph24.1 kmh 30.11 in1019.6 mb - 0.00 in0.0 mm 0.00 in0.0 mm
06:10 AM 76.8°F24.9°C 27.2°F-2.7°C 16% 11.5 mph NNE18.5 kmh NNE 16.1 mph25.9 kmh 30.11 in1019.6 mb - 0.00 in0.0 mm 0.00 in0.0 mm
06:05 AM 77.0°F25.0°C 27.3°F-2.6°C 16% 11.5 mph NNE18.5 kmh NNE 13.8 mph22.2 kmh 30.11 in1019.6 mb - 0.00 in0.0 mm 0.00 in0.0 mm
06:00 AM 77.2°F25.1°C 27.5°F-2.5°C 16% 12.7 mph NE20.4 kmh NE 12.7 mph20.4 kmh 30.11 in1019.6 mb - 0.00 in0.0 mm 0.00 in0.0 mm
05:55 AM 77.4°F25.2°C 27.7°F-2.4°C 16% 11.5 mph 18.5 kmh 13.8 mph22.2 kmh 30.11 in1019.6 mb - 0.00 in0.0 mm 0.00 in0.0 mm
05:50 AM 77.4°F25.2°C 27.7°F-2.4°C 16% 13.8 mph N22.2 kmh N 15.0 mph24.1 kmh 30.11 in1019.6 mb - 0.00 in0.0 mm 0.00 in0.0 mm
05:45 AM 77.4°F25.2°C 27.7°F-2.4°C 16% 11.5 mph NNE18.5 kmh NNE 17.3 mph27.8 kmh 30.11 in1019.6 mb - 0.00 in0.0 mm 0.00 in0.0 mm
05:40 AM 77.2°F25.1°C 27.5°F-2.5°C 16% 9.2 mph N14.8 kmh N 11.5 mph18.5 kmh 30.11 in1019.6 mb - 0.00 in0.0 mm 0.00 in0.0 mm
05:35 AM 77.2°F25.1°C 27.5°F-2.5°C 16% 12.7 mph NNW20.4 kmh NNW 16.1 mph25.9 kmh 30.11 in1019.6 mb - 0.00 in0.0 mm 0.00 in0.0 mm
05:30 AM 77.4°F25.2°C 27.7°F-2.4°C 16% 9.2 mph NE14.8 kmh NE 11.5 mph18.5 kmh 30.11 in1019.6 mb - 0.00 in0.0 mm 0.00 in0.0 mm
05:25 AM 77.0°F25.0°C 27.3°F-2.6°C 16% 11.5 mph NE18.5 kmh NE 13.8 mph22.2 kmh 30.11 in1019.6 mb - 0.00 in0.0 mm 0.00 in0.0 mm
05:20 AM 77.2°F25.1°C 27.5°F-2.5°C 16% 11.5 mph NW18.5 kmh NW 10.4 mph16.7 kmh 30.11 in1019.6 mb - 0.00 in0.0 mm 0.00 in0.0 mm
05:15 AM 77.0°F25.0°C 27.4°F-2.6°C 16% 6.9 mph NE11.1 kmh NE 10.4 mph16.7 kmh 30.11 in1019.6 mb - 0.00 in0.0 mm 0.00 in0.0 mm
05:10 AM 77.0°F25.0°C 27.3°F-2.6°C 16% 6.9 mph NNE11.1 kmh NNE 6.9 mph11.1 kmh 30.11 in1019.6 mb - 0.00 in0.0 mm 0.00 in0.0 mm
05:05 AM 77.2°F25.1°C 27.5°F-2.5°C 16% 6.9 mph NE11.1 kmh NE 6.9 mph11.1 kmh 30.11 in1019.6 mb - 0.00 in0.0 mm 0.00 in0.0 mm
05:00 AM 77.5°F25.3°C 27.7°F-2.4°C 16% 9.2 mph NE14.8 kmh NE 12.7 mph20.4 kmh 30.11 in1019.6 mb - 0.00 in0.0 mm 0.00 in0.0 mm
04:55 AM 77.4°F25.2°C 27.7°F-2.4°C 16% 13.8 mph N22.2 kmh N 11.5 mph18.5 kmh 30.10 in1019.3 mb - 0.00 in0.0 mm 0.00 in0.0 mm
04:50 AM 77.2°F25.1°C 27.5°F-2.5°C 16% 12.7 mph NNE20.4 kmh NNE 12.7 mph20.4 kmh 30.10 in1019.3 mb - 0.00 in0.0 mm 0.00 in0.0 mm
04:45 AM 76.3°F24.6°C 28.2°F-2.1°C 17% 9.2 mph NE14.8 kmh NE 11.5 mph18.5 kmh 30.10 in1019.3 mb - 0.00 in0.0 mm 0.00 in0.0 mm
04:40 AM 75.9°F24.4°C 27.9°F-2.3°C 17% 9.2 mph NE14.8 kmh NE 13.8 mph22.2 kmh 30.10 in1019.3 mb - 0.00 in0.0 mm 0.00 in0.0 mm
04:35 AM 75.9°F24.4°C 27.9°F-2.3°C 17% 8.1 mph N13.0 kmh N 9.2 mph14.8 kmh 30.10 in1019.3 mb - 0.00 in0.0 mm 0.00 in0.0 mm
04:30 AM 75.9°F24.4°C 27.9°F-2.3°C 17% 8.1 mph NW13.0 kmh NW 10.4 mph16.7 kmh 30.10 in1019.3 mb - 0.00 in0.0 mm 0.00 in0.0 mm
04:25 AM 75.9°F24.4°C 27.9°F-2.3°C 17% 10.4 mph NNE16.7 kmh NNE 10.4 mph16.7 kmh 30.10 in1019.3 mb - 0.00 in0.0 mm 0.00 in0.0 mm
04:20 AM 75.4°F24.1°C 27.5°F-2.5°C 17% 9.2 mph NNE14.8 kmh NNE 12.7 mph20.4 kmh 30.09 in1019.0 mb - 0.00 in0.0 mm 0.00 in0.0 mm
04:15 AM 75.0°F23.9°C 27.2°F-2.7°C 17% 10.4 mph NNW16.7 kmh NNW 12.7 mph20.4 kmh 30.09 in1019.0 mb - 0.00 in0.0 mm 0.00 in0.0 mm
04:10 AM 74.3°F23.5°C 28.0°F-2.2°C 18% 11.5 mph NNE18.5 kmh NNE 11.5 mph18.5 kmh 30.09 in1019.0 mb - 0.00 in0.0 mm 0.00 in0.0 mm
04:05 AM 73.4°F23.0°C 27.3°F-2.6°C 18% 8.1 mph N13.0 kmh N 9.2 mph14.8 kmh 30.10 in1019.3 mb - 0.00 in0.0 mm 0.00 in0.0 mm
04:00 AM 73.2°F22.9°C 27.1°F-2.7°C 18% 8.1 mph NE13.0 kmh NE 10.4 mph16.7 kmh 30.10 in1019.3 mb - 0.00 in0.0 mm 0.00 in0.0 mm
03:55 AM 72.9°F22.7°C 26.9°F-2.8°C 18% 9.2 mph N14.8 kmh N 10.4 mph16.7 kmh 30.10 in1019.3 mb - 0.00 in0.0 mm 0.00 in0.0 mm
03:50 AM 72.3°F22.4°C 26.4°F-3.1°C 18% 8.1 mph NNW13.0 kmh NNW 11.5 mph18.5 kmh 30.10 in1019.3 mb - 0.00 in0.0 mm 0.00 in0.0 mm
03:45 AM 72.7°F22.6°C 26.7°F-2.9°C 18% 5.8 mph N9.3 kmh N 6.9 mph11.1 kmh 30.10 in1019.3 mb - 0.00 in0.0 mm 0.00 in0.0 mm
03:40 AM 72.9°F22.7°C 26.9°F-2.8°C 18% 8.1 mph NNE13.0 kmh NNE 10.4 mph16.7 kmh 30.10 in1019.3 mb - 0.00 in0.0 mm 0.00 in0.0 mm
03:35 AM 73.2°F22.9°C 27.1°F-2.7°C 18% 9.2 mph N14.8 kmh N 10.4 mph16.7 kmh 30.10 in1019.3 mb - 0.00 in0.0 mm 0.00 in0.0 mm
03:30 AM 73.4°F23.0°C 27.3°F-2.6°C 18% 8.1 mph NNW13.0 kmh NNW 10.4 mph16.7 kmh 30.10 in1019.3 mb - 0.00 in0.0 mm 0.00 in0.0 mm
03:25 AM 73.4°F23.0°C 27.3°F-2.6°C 18% 8.1 mph N13.0 kmh N 12.7 mph20.4 kmh 30.10 in1019.3 mb - 0.00 in0.0 mm 0.00 in0.0 mm
03:20 AM 73.4°F23.0°C 27.3°F-2.6°C 18% 6.9 mph NE11.1 kmh NE 9.2 mph14.8 kmh 30.10 in1019.3 mb - 0.00 in0.0 mm 0.00 in0.0 mm
03:15 AM 73.2°F22.9°C 27.1°F-2.7°C 18% 8.1 mph NNE13.0 kmh NNE 9.2 mph14.8 kmh 30.10 in1019.3 mb - 0.00 in0.0 mm 0.00 in0.0 mm
03:10 AM 73.0°F22.8°C 27.0°F-2.8°C 18% 6.9 mph NE11.1 kmh NE 10.4 mph16.7 kmh 30.10 in1019.3 mb - 0.00 in0.0 mm 0.00 in0.0 mm
03:05 AM 73.0°F22.8°C 27.0°F-2.8°C 18% 8.1 mph NE13.0 kmh NE 10.4 mph16.7 kmh 30.10 in1019.3 mb - 0.00 in0.0 mm 0.00 in0.0 mm
03:00 AM 73.0°F22.8°C 27.0°F-2.8°C 18% 8.1 mph N13.0 kmh N 8.1 mph13.0 kmh 30.10 in1019.3 mb - 0.00 in0.0 mm 0.00 in0.0 mm
02:55 AM 73.0°F22.8°C 27.0°F-2.8°C 18% 9.2 mph NNE14.8 kmh NNE 12.7 mph20.4 kmh 30.10 in1019.3 mb - 0.00 in0.0 mm 0.00 in0.0 mm
02:50 AM 72.9°F22.7°C 26.9°F-2.8°C 18% 6.9 mph NNE11.1 kmh NNE 8.1 mph13.0 kmh 30.10 in1019.3 mb - 0.00 in0.0 mm 0.00 in0.0 mm
02:45 AM 72.7°F22.6°C 26.7°F-2.9°C 18% 9.2 mph N14.8 kmh N 10.4 mph16.7 kmh 30.10 in1019.3 mb - 0.00 in0.0 mm 0.00 in0.0 mm
02:40 AM 72.5°F22.5°C 26.5°F-3.1°C 18% 6.9 mph N11.1 kmh N 9.2 mph14.8 kmh 30.11 in1019.6 mb - 0.00 in0.0 mm 0.00 in0.0 mm
02:35 AM 72.5°F22.5°C 26.5°F-3.1°C 18% 9.2 mph NE14.8 kmh NE 9.2 mph14.8 kmh 30.11 in1019.6 mb - 0.00 in0.0 mm 0.00 in0.0 mm
02:30 AM 72.1°F22.3°C 26.2°F-3.2°C 18% 8.1 mph NE13.0 kmh NE 10.4 mph16.7 kmh 30.11 in1019.6 mb - 0.00 in0.0 mm 0.00 in0.0 mm
02:25 AM 71.5°F21.9°C 25.7°F-3.5°C 18% 8.1 mph NNE13.0 kmh NNE 10.4 mph16.7 kmh 30.11 in1019.6 mb - 0.00 in0.0 mm 0.00 in0.0 mm
02:20 AM 71.1°F21.7°C 25.4°F-3.7°C 18% 4.6 mph ENE7.4 kmh ENE 8.1 mph13.0 kmh 30.11 in1019.6 mb - 0.00 in0.0 mm 0.00 in0.0 mm
02:15 AM 71.1°F21.7°C 25.4°F-3.7°C 18% 3.5 mph E5.6 kmh E 6.9 mph11.1 kmh 30.11 in1019.6 mb - 0.00 in0.0 mm 0.00 in0.0 mm
02:10 AM 71.1°F21.7°C 25.4°F-3.7°C 18% 5.8 mph ENE9.3 kmh ENE 5.8 mph9.3 kmh 30.11 in1019.6 mb - 0.00 in0.0 mm 0.00 in0.0 mm
02:05 AM 71.1°F21.7°C 25.4°F-3.7°C 18% 5.8 mph NE9.3 kmh NE 6.9 mph11.1 kmh 30.11 in1019.6 mb - 0.00 in0.0 mm 0.00 in0.0 mm
02:00 AM 71.2°F21.8°C 25.5°F-3.6°C 18% 6.9 mph NNE11.1 kmh NNE 6.9 mph11.1 kmh 30.11 in1019.6 mb - 0.00 in0.0 mm 0.00 in0.0 mm
01:55 AM 71.2°F21.8°C 25.5°F-3.6°C 18% 6.9 mph N11.1 kmh N 10.4 mph16.7 kmh 30.11 in1019.6 mb - 0.00 in0.0 mm 0.00 in0.0 mm
01:50 AM 71.4°F21.9°C 24.3°F-4.3°C 17% 4.6 mph NE7.4 kmh NE 5.8 mph9.3 kmh 30.11 in1019.6 mb - 0.00 in0.0 mm 0.00 in0.0 mm
01:45 AM 71.6°F22.0°C 24.4°F-4.2°C 17% 4.6 mph NNE7.4 kmh NNE 5.8 mph9.3 kmh 30.11 in1019.6 mb - 0.00 in0.0 mm 0.00 in0.0 mm
01:40 AM 72.0°F22.2°C 24.8°F-4.0°C 17% 4.6 mph N7.4 kmh N 5.8 mph9.3 kmh 30.11 in1019.6 mb - 0.00 in0.0 mm 0.00 in0.0 mm
01:35 AM 72.1°F22.3°C 23.4°F-4.8°C 16% 4.6 mph N7.4 kmh N 5.8 mph9.3 kmh 30.11 in1019.6 mb - 0.00 in0.0 mm 0.00 in0.0 mm
01:30 AM 71.8°F22.1°C 23.2°F-4.9°C 16% 5.8 mph ENE9.3 kmh ENE 6.9 mph11.1 kmh 30.11 in1019.6 mb - 0.00 in0.0 mm 0.00 in0.0 mm
01:25 AM 71.6°F22.0°C 23.0°F-5.0°C 16% 4.6 mph N7.4 kmh N 5.8 mph9.3 kmh 30.11 in1019.6 mb - 0.00 in0.0 mm 0.00 in0.0 mm
01:20 AM 71.8°F22.1°C 23.2°F-4.9°C 16% 4.6 mph NE7.4 kmh NE 5.8 mph9.3 kmh 30.11 in1019.6 mb - 0.00 in0.0 mm 0.00 in0.0 mm
01:15 AM 72.0°F22.2°C 23.3°F-4.8°C 16% 4.6 mph NE7.4 kmh NE 5.8 mph9.3 kmh 30.10 in1019.3 mb - 0.00 in0.0 mm 0.00 in0.0 mm
01:10 AM 72.3°F22.4°C 23.6°F-4.7°C 16% 5.8 mph NE9.3 kmh NE 5.8 mph9.3 kmh 30.10 in1019.3 mb - 0.00 in0.0 mm 0.00 in0.0 mm
01:05 AM 72.3°F22.4°C 22.0°F-5.6°C 15% 5.8 mph N9.3 kmh N 5.8 mph9.3 kmh 30.10 in1019.3 mb - 0.00 in0.0 mm 0.00 in0.0 mm
01:00 AM 72.1°F22.3°C 21.8°F-5.7°C 15% 4.6 mph ENE7.4 kmh ENE 5.8 mph9.3 kmh 30.10 in1019.3 mb - 0.00 in0.0 mm 0.00 in0.0 mm
12:55 AM 71.8°F22.1°C 21.6°F-5.8°C 15% 3.5 mph NE5.6 kmh NE 5.8 mph9.3 kmh 30.10 in1019.3 mb - 0.00 in0.0 mm 0.00 in0.0 mm
12:50 AM 72.1°F22.3°C 21.9°F-5.6°C 15% 2.3 mph S3.7 kmh S 2.3 mph3.7 kmh 30.10 in1019.3 mb - 0.00 in0.0 mm 0.00 in0.0 mm
12:45 AM 72.5°F22.5°C 22.2°F-5.4°C 15% 1.2 mph NE1.9 kmh NE 2.3 mph3.7 kmh 30.10 in1019.3 mb - 0.00 in0.0 mm 0.00 in0.0 mm
12:40 AM 72.5°F22.5°C 22.2°F-5.4°C 15% 2.3 mph NE3.7 kmh NE 2.3 mph3.7 kmh 30.10 in1019.3 mb - 0.00 in0.0 mm 0.00 in0.0 mm
12:35 AM 72.5°F22.5°C 22.2°F-5.4°C 15% 2.3 mph N3.7 kmh N 3.5 mph5.6 kmh 30.10 in1019.3 mb - 0.00 in0.0 mm 0.00 in0.0 mm
12:30 AM 72.5°F22.5°C 20.5°F-6.4°C 14% 3.5 mph NW5.6 kmh NW 3.5 mph5.6 kmh 30.10 in1019.3 mb - 0.00 in0.0 mm 0.00 in0.0 mm
12:25 AM 72.7°F22.6°C 20.7°F-6.3°C 14% 3.5 mph NNW5.6 kmh NNW 4.6 mph7.4 kmh 30.10 in1019.3 mb - 0.00 in0.0 mm 0.00 in0.0 mm
12:20 AM 72.7°F22.6°C 20.7°F-6.3°C 14% 3.5 mph NE5.6 kmh NE 4.6 mph7.4 kmh 30.10 in1019.3 mb - 0.00 in0.0 mm 0.00 in0.0 mm
12:15 AM 72.9°F22.7°C 20.9°F-6.2°C 14% 3.5 mph N5.6 kmh N 4.6 mph7.4 kmh 30.10 in1019.3 mb - 0.00 in0.0 mm 0.00 in0.0 mm
12:10 AM 72.8°F22.7°C 20.8°F-6.2°C 14% 4.6 mph N7.4 kmh N 4.6 mph7.4 kmh 30.10 in1019.3 mb - 0.00 in0.0 mm 0.00 in0.0 mm
12:05 AM 72.5°F22.5°C 20.5°F-6.4°C 14% 3.5 mph N5.6 kmh N 4.6 mph7.4 kmh 30.10 in1019.3 mb - 0.00 in0.0 mm 0.00 in0.0 mm
12:00 AM 72.5°F22.5°C 20.5°F-6.4°C 14% 3.5 mph N5.6 kmh N 5.8 mph9.3 kmh 30.10 in1019.3 mb - 0.00 in0.0 mm 0.00 in0.0 mm